createdAt,value
2018-01-11T00:00:31.951Z,12.70
2018-01-11T00:03:00.636Z,12.70
2018-01-11T00:05:29.703Z,13.30
2018-01-11T00:07:57.990Z,12.93
2018-01-11T00:10:26.271Z,13.30
2018-01-11T00:12:54.561Z,12.37
2018-01-11T00:15:23.258Z,13.10
2018-01-11T00:17:51.534Z,12.70
2018-01-11T00:20:20.667Z,13.50
2018-01-11T00:22:49.378Z,12.40
2018-01-11T00:25:17.704Z,12.87
2018-01-11T00:27:45.980Z,13.00
2018-01-11T00:30:14.275Z,13.33
2018-01-11T00:32:42.564Z,13.67
2018-01-11T00:35:11.168Z,13.20
2018-01-11T00:37:39.459Z,14.00
2018-01-11T00:40:08.231Z,13.33
2018-01-11T00:42:36.509Z,13.17
2018-01-11T00:45:05.096Z,13.03
2018-01-11T00:47:33.383Z,13.20
2018-01-11T00:50:02.367Z,13.40
2018-01-11T00:52:30.945Z,12.83
2018-01-11T00:54:59.238Z,13.00
2018-01-11T00:57:27.915Z,12.90
2018-01-11T00:59:56.192Z,13.30
2018-01-11T01:02:24.479Z,12.93
2018-01-11T01:04:53.448Z,13.30
2018-01-11T01:07:21.739Z,12.70
2018-01-11T01:09:50.023Z,12.70
2018-01-11T01:12:18.327Z,13.10
2018-01-11T01:14:46.610Z,12.50
2018-01-11T01:17:14.886Z,13.53
2018-01-11T01:19:43.178Z,13.10
2018-01-11T01:22:11.457Z,12.53
2018-01-11T01:24:39.878Z,11.93
2018-01-11T01:27:08.546Z,13.63
2018-01-11T01:29:36.838Z,13.10
2018-01-11T01:32:05.518Z,13.20
2018-01-11T01:34:34.503Z,12.57
2018-01-11T01:37:03.096Z,13.33
2018-01-11T01:39:31.382Z,13.33
2018-01-11T01:41:59.743Z,13.20
2018-01-11T01:44:28.046Z,13.63
2018-01-11T01:46:56.718Z,13.70
2018-01-11T01:49:25.431Z,13.60
2018-01-11T01:51:53.716Z,13.80
2018-01-11T01:54:22.035Z,13.40
2018-01-11T01:56:50.375Z,12.33
2018-01-11T01:59:18.651Z,13.10
2018-01-11T02:01:46.925Z,13.10
2018-01-11T02:04:15.261Z,14.03
2018-01-11T02:06:43.577Z,13.80
2018-01-11T02:09:11.866Z,13.93
2018-01-11T02:11:40.283Z,13.47
2018-01-11T02:14:08.569Z,13.43
2018-01-11T02:16:36.871Z,14.10
2018-01-11T02:19:05.406Z,13.87
2018-01-11T02:21:34.002Z,13.50
2018-01-11T02:24:02.301Z,13.50
2018-01-11T02:26:31.002Z,14.00
2018-01-11T02:28:59.281Z,13.40
2018-01-11T02:31:27.554Z,13.50
2018-01-11T02:33:55.989Z,13.10
2018-01-11T02:36:24.292Z,13.13
2018-01-11T02:38:52.990Z,13.00
2018-01-11T02:41:21.403Z,12.90
2018-01-11T02:43:49.689Z,13.37
2018-01-11T02:46:17.982Z,13.50
2018-01-11T02:48:46.293Z,13.50
2018-01-11T02:51:14.971Z,13.00
2018-01-11T02:53:43.533Z,13.23
2018-01-11T02:56:11.848Z,13.97
2018-01-11T02:58:40.123Z,12.80
2018-01-11T03:01:08.416Z,12.17
2018-01-11T03:03:36.722Z,13.33
2018-01-11T03:06:04.998Z,13.80
2018-01-11T03:08:33.751Z,14.10
2018-01-11T03:11:02.179Z,12.47
2018-01-11T03:13:30.763Z,12.63
2018-01-11T03:15:59.064Z,12.93
2018-01-11T03:18:27.830Z,13.67
2018-01-11T03:20:56.127Z,12.57
2018-01-11T03:23:25.098Z,12.83
2018-01-11T03:25:53.457Z,12.30
2018-01-11T03:28:21.769Z,12.73
2018-01-11T03:30:50.132Z,12.70
2018-01-11T03:33:18.448Z,12.83
2018-01-11T03:35:46.765Z,12.63
2018-01-11T03:38:15.046Z,12.77
2018-01-11T03:40:43.390Z,12.77
2018-01-11T03:43:11.672Z,12.20
2018-01-11T03:45:39.955Z,12.33
2018-01-11T03:48:08.311Z,12.70
2018-01-11T03:50:36.621Z,12.43
2018-01-11T03:53:04.931Z,11.73
2018-01-11T03:55:33.650Z,12.00
2018-01-11T03:58:01.929Z,12.97
2018-01-11T04:00:30.203Z,12.43
2018-01-11T04:02:59.378Z,12.67
2018-01-11T04:05:27.675Z,13.00
2018-01-11T04:07:55.950Z,12.33
2018-01-11T04:10:24.271Z,12.33
2018-01-11T04:12:52.986Z,12.50
2018-01-11T04:15:21.686Z,11.97
2018-01-11T04:17:50.384Z,12.27
2018-01-11T04:20:18.658Z,12.80
2018-01-11T04:22:46.954Z,12.27
2018-01-11T04:25:15.582Z,12.43
2018-01-11T04:27:44.163Z,11.93
2018-01-11T04:30:13.162Z,12.27
2018-01-11T04:32:42.138Z,11.77
2018-01-11T04:35:10.438Z,11.40
2018-01-11T04:37:38.742Z,11.97
2018-01-11T04:40:07.073Z,11.80
2018-01-11T04:42:35.360Z,12.20
2018-01-11T04:45:03.652Z,12.13
2018-01-11T04:47:32.370Z,11.97
2018-01-11T04:50:00.670Z,11.70
2018-01-11T04:52:28.955Z,12.00
2018-01-11T04:54:57.333Z,11.23
2018-01-11T04:57:25.621Z,12.97
2018-01-11T04:59:54.162Z,12.83
2018-01-11T05:02:22.458Z,12.23
2018-01-11T05:04:50.804Z,11.90
2018-01-11T05:07:19.152Z,12.30
2018-01-11T05:09:47.865Z,12.97
2018-01-11T05:12:16.166Z,12.67
2018-01-11T05:14:44.794Z,12.33
2018-01-11T05:17:13.126Z,12.13
2018-01-11T05:19:41.430Z,12.30
2018-01-11T05:22:09.731Z,12.70
2018-01-11T05:24:38.474Z,12.23
2018-01-11T05:27:07.199Z,12.03
2018-01-11T05:29:35.514Z,12.10
2018-01-11T05:32:03.813Z,12.20
2018-01-11T05:34:32.094Z,11.93
2018-01-11T05:37:00.452Z,12.03
2018-01-11T05:39:28.807Z,11.93
2018-01-11T05:41:57.498Z,12.60
2018-01-11T05:44:25.832Z,12.87
2018-01-11T05:46:54.179Z,13.17
2018-01-11T05:49:23.345Z,12.60
2018-01-11T05:51:51.626Z,11.50
2018-01-11T05:54:19.950Z,11.60
2018-01-11T05:56:48.230Z,12.63
2018-01-11T05:59:16.526Z,12.80
2018-01-11T06:01:45.258Z,13.40
2018-01-11T06:04:13.559Z,13.37
2018-01-11T06:06:41.862Z,13.17
2018-01-11T06:09:10.159Z,14.30
2018-01-11T06:11:38.890Z,13.73
2018-01-11T06:14:07.223Z,13.33
2018-01-11T06:16:35.907Z,13.57
2018-01-11T06:19:04.639Z,13.03
2018-01-11T06:21:33.155Z,13.73
2018-01-11T06:24:01.445Z,13.30
2018-01-11T06:26:29.782Z,14.10
2018-01-11T06:28:58.071Z,13.20
2018-01-11T06:31:26.351Z,12.73
2018-01-11T06:33:54.711Z,13.17
2018-01-11T06:36:23.015Z,13.73
2018-01-11T06:38:51.304Z,14.30
2018-01-11T06:41:19.606Z,13.97
2018-01-11T06:43:48.151Z,13.40
2018-01-11T06:46:16.457Z,13.37
2018-01-11T06:48:44.792Z,14.23
2018-01-11T06:51:13.077Z,14.27
2018-01-11T06:53:41.362Z,14.23
2018-01-11T06:56:09.745Z,14.37
2018-01-11T06:58:38.043Z,14.57
2018-01-11T07:01:07.007Z,13.00
2018-01-11T07:03:35.592Z,13.80
2018-01-11T07:06:03.877Z,15.17
2018-01-11T07:08:32.215Z,14.33
2018-01-11T07:11:00.520Z,13.90
2018-01-11T07:13:28.824Z,13.50
2018-01-11T07:15:57.153Z,14.43
2018-01-11T07:18:25.462Z,14.37
2018-01-11T07:20:54.711Z,14.50
2018-01-11T07:23:23.111Z,14.30
2018-01-11T07:25:51.411Z,14.40
2018-01-11T07:28:20.502Z,14.33
2018-01-11T07:30:49.090Z,14.03
2018-01-11T07:33:17.375Z,14.97
2018-01-11T07:35:46.114Z,13.83
2018-01-11T07:38:14.422Z,14.50
2018-01-11T07:40:43.217Z,14.77
2018-01-11T07:43:12.849Z,14.57
2018-01-11T07:45:41.458Z,14.13
2018-01-11T07:48:09.763Z,14.20
2018-01-11T07:50:38.330Z,14.57
2018-01-11T07:53:06.645Z,13.10
2018-01-11T07:55:35.223Z,13.80
2018-01-11T07:58:03.757Z,14.93
2018-01-11T08:00:32.057Z,14.50
2018-01-11T08:03:00.442Z,14.07
2018-01-11T08:05:28.746Z,14.23
2018-01-11T08:07:57.075Z,14.87
2018-01-11T08:10:25.361Z,14.97
2018-01-11T08:12:53.675Z,14.00
2018-01-11T08:15:21.986Z,14.70
2018-01-11T08:17:50.292Z,14.87
2018-01-11T08:20:18.642Z,14.60
2018-01-11T08:22:46.946Z,14.03
2018-01-11T08:25:15.228Z,14.03
2018-01-11T08:27:43.835Z,14.80
2018-01-11T08:30:12.196Z,13.93
2018-01-11T08:32:40.877Z,14.63
2018-01-11T08:35:09.202Z,14.93
2018-01-11T08:37:37.758Z,15.20
2018-01-11T08:40:06.118Z,14.00
2018-01-11T08:42:34.403Z,14.70
2018-01-11T08:45:02.687Z,15.53
2018-01-11T08:47:31.003Z,14.10
2018-01-11T08:49:59.425Z,14.03
2018-01-11T08:52:27.706Z,15.03
2018-01-11T08:54:56.081Z,14.37
2018-01-11T08:57:24.685Z,14.73
2018-01-11T08:59:53.089Z,14.13
2018-01-11T09:02:21.606Z,15.10
2018-01-11T09:04:49.969Z,14.47
2018-01-11T09:07:18.278Z,14.47
2018-01-11T09:09:46.638Z,14.37
2018-01-11T09:12:14.916Z,14.50
2018-01-11T09:14:43.204Z,14.70
2018-01-11T09:17:11.536Z,14.63
2018-01-11T09:19:39.955Z,15.40
2018-01-11T09:22:08.205Z,14.70
2018-01-11T09:24:36.846Z,14.50
2018-01-11T09:27:05.162Z,14.00
2018-01-11T09:29:33.585Z,15.33
2018-01-11T09:32:01.879Z,15.03
2018-01-11T09:34:30.539Z,14.73
2018-01-11T09:36:58.818Z,15.43
2018-01-11T09:39:27.301Z,15.17
2018-01-11T09:41:55.596Z,15.60
2018-01-11T09:44:23.875Z,15.10
2018-01-11T09:46:52.174Z,15.40
2018-01-11T09:49:20.895Z,15.20
2018-01-11T09:51:49.215Z,14.90
2018-01-11T09:54:17.930Z,14.67
2018-01-11T09:56:46.672Z,15.20
2018-01-11T09:59:14.998Z,14.90
2018-01-11T10:01:43.302Z,15.43
2018-01-11T10:04:11.670Z,15.50
2018-01-11T10:06:39.991Z,15.67
2018-01-11T10:09:09.177Z,14.97
2018-01-11T10:11:38.244Z,15.27
2018-01-11T10:14:06.852Z,15.93
2018-01-11T10:16:35.152Z,15.37
2018-01-11T10:19:03.455Z,14.73
2018-01-11T10:21:32.109Z,14.67
2018-01-11T10:24:00.456Z,15.63
2018-01-11T10:26:28.761Z,15.63
2018-01-11T10:28:57.172Z,15.80
2018-01-11T10:31:25.481Z,14.90
2018-01-11T10:33:54.102Z,15.20
2018-01-11T10:36:22.381Z,16.03
2018-01-11T10:38:50.673Z,15.73
2018-01-11T10:41:19.424Z,14.93
2018-01-11T10:43:48.033Z,15.83
2018-01-11T10:46:17.426Z,15.20
2018-01-11T10:48:45.747Z,16.40
2018-01-11T10:51:14.031Z,15.20
2018-01-11T10:53:42.303Z,15.70
2018-01-11T10:56:10.844Z,15.20
2018-01-11T10:58:39.132Z,15.90
2018-01-11T11:01:13.231Z,10.33
2018-01-11T11:03:42.322Z,11.60
2018-01-11T11:06:10.613Z,11.90
2018-01-11T11:08:38.978Z,12.80
2018-01-11T11:11:07.267Z,13.03
2018-01-11T11:13:35.557Z,12.93
2018-01-11T11:16:04.264Z,13.90
2018-01-11T11:18:32.602Z,14.10
2018-01-11T11:21:00.907Z,14.43
2018-01-11T11:23:30.019Z,13.90
2018-01-11T11:25:58.303Z,15.40
2018-01-11T11:28:26.654Z,16.67
2018-01-11T11:30:54.974Z,18.07
2018-01-11T11:33:23.296Z,18.53
2018-01-11T11:35:51.990Z,20.80
2018-01-11T11:38:20.682Z,20.53
2018-01-11T11:40:49.378Z,19.97
2018-01-11T11:43:17.795Z,20.13
2018-01-11T11:45:46.401Z,20.43
2018-01-11T11:48:14.714Z,19.90
2018-01-11T11:50:43.133Z,19.97
2018-01-11T11:53:11.990Z,19.37
2018-01-11T11:55:40.425Z,20.93
2018-01-11T11:58:08.742Z,20.00
2018-01-11T12:00:37.043Z,20.67
2018-01-11T12:03:05.388Z,21.60
2018-01-11T12:05:33.712Z,20.90
2018-01-11T12:08:02.090Z,20.30
2018-01-11T12:10:30.394Z,21.07
2018-01-11T12:12:59.141Z,20.70
2018-01-11T12:15:27.501Z,20.43
2018-01-11T12:17:55.819Z,21.03
2018-01-11T12:20:24.134Z,20.93
2018-01-11T12:22:52.858Z,22.93
2018-01-11T12:25:21.171Z,22.67
2018-01-11T12:27:49.586Z,22.37
2018-01-11T12:30:17.916Z,20.07
2018-01-11T12:32:46.199Z,21.00
2018-01-11T12:35:14.542Z,21.80
2018-01-11T12:37:42.823Z,23.17
2018-01-11T12:40:11.263Z,21.27
2018-01-11T12:42:40.024Z,23.17
2018-01-11T12:45:08.342Z,22.80
2018-01-11T12:47:36.759Z,23.93
2018-01-11T12:50:05.129Z,23.20
2018-01-11T12:52:33.437Z,22.80
2018-01-11T12:55:01.797Z,22.23
2018-01-11T12:57:30.114Z,21.97
2018-01-11T12:59:58.800Z,22.87
2018-01-11T13:02:27.508Z,23.53
2018-01-11T13:04:55.931Z,22.03
2018-01-11T13:07:24.297Z,22.30
2018-01-11T13:09:52.663Z,22.30
2018-01-11T13:12:20.981Z,22.73
2018-01-11T13:14:49.342Z,22.77
2018-01-11T13:17:17.652Z,22.90
2018-01-11T13:19:46.349Z,21.90
2018-01-11T13:22:14.652Z,22.63
2018-01-11T13:24:42.956Z,22.97
2018-01-11T13:27:11.243Z,22.03
2018-01-11T13:29:39.522Z,21.33
2018-01-11T13:32:08.250Z,22.20
2018-01-11T13:34:36.535Z,22.50
2018-01-11T13:37:04.847Z,21.70
2018-01-11T13:39:33.151Z,22.70
2018-01-11T13:42:01.474Z,21.80
2018-01-11T13:44:29.799Z,21.20
2018-01-11T13:46:58.101Z,21.73
2018-01-11T13:49:26.381Z,21.77
2018-01-11T13:51:54.700Z,20.53
2018-01-11T13:54:23.018Z,22.20
2018-01-11T13:56:51.355Z,22.47
2018-01-11T13:59:19.676Z,21.20
2018-01-11T14:01:47.979Z,21.90
2018-01-11T14:04:16.391Z,22.47
2018-01-11T14:06:44.797Z,22.30
2018-01-11T14:09:13.142Z,21.37
2018-01-11T14:11:41.432Z,21.80
2018-01-11T14:14:09.745Z,21.93
2018-01-11T14:16:38.172Z,22.87
2018-01-11T14:19:07.087Z,22.33
2018-01-11T14:21:35.445Z,22.47
2018-01-11T14:24:03.731Z,21.50
2018-01-11T14:26:32.067Z,22.43
2018-01-11T14:29:00.374Z,22.10
2018-01-11T14:31:28.753Z,23.33
2018-01-11T14:33:57.100Z,22.93
2018-01-11T14:36:25.391Z,22.03
2018-01-11T14:38:53.691Z,22.23
2018-01-11T14:41:22.121Z,21.90
2018-01-11T14:43:50.443Z,23.20
2018-01-11T14:46:18.739Z,22.80
2018-01-11T14:48:48.083Z,22.43
2018-01-11T14:51:16.498Z,22.83
2018-01-11T14:53:44.811Z,22.33
2018-01-11T14:56:13.543Z,22.40
2018-01-11T14:58:41.863Z,23.23
2018-01-11T15:01:10.172Z,22.60
2018-01-11T15:03:38.495Z,23.47
2018-01-11T15:06:08.203Z,24.03
2018-01-11T15:08:36.520Z,25.30
2018-01-11T15:11:05.352Z,23.43
2018-01-11T15:13:34.531Z,25.30
2018-01-11T15:16:02.826Z,25.13
2018-01-11T15:18:31.322Z,24.20
2018-01-11T15:20:59.616Z,25.53
2018-01-11T15:23:28.673Z,25.10
2018-01-11T15:25:57.008Z,24.20
2018-01-11T15:28:25.315Z,24.93
2018-01-11T15:30:53.666Z,24.57
2018-01-11T15:33:22.397Z,24.57
2018-01-11T15:35:51.217Z,24.70
2018-01-11T15:38:20.091Z,23.60
2018-01-11T15:40:48.615Z,23.27
2018-01-11T15:43:17.453Z,23.53
2018-01-11T15:45:45.888Z,24.40
2018-01-11T15:48:14.322Z,22.83
2018-01-11T15:50:43.729Z,22.20
2018-01-11T15:53:12.777Z,23.90
2018-01-11T15:55:41.107Z,23.70
2018-01-11T15:58:09.473Z,23.93
2018-01-11T16:00:37.817Z,23.60
2018-01-11T16:03:06.100Z,23.00
2018-01-11T16:05:34.394Z,23.40
2018-01-11T16:08:02.726Z,21.87
2018-01-11T16:10:31.459Z,22.20
2018-01-11T16:13:00.081Z,22.43
2018-01-11T16:15:28.377Z,22.17
2018-01-11T16:17:56.735Z,21.40
2018-01-11T16:20:25.457Z,20.60
2018-01-11T16:22:53.776Z,21.60
2018-01-11T16:25:22.086Z,20.20
2018-01-11T16:27:50.371Z,18.70
2018-01-11T16:30:19.083Z,19.30
2018-01-11T16:32:47.420Z,18.70
2018-01-11T16:35:15.742Z,19.97
2018-01-11T16:37:44.118Z,18.40
2018-01-11T16:40:12.502Z,19.03
2018-01-11T16:42:40.864Z,18.87
2018-01-11T16:45:09.212Z,19.60
2018-01-11T16:47:37.622Z,18.60
2018-01-11T16:50:07.038Z,18.87
2018-01-11T16:52:35.948Z,18.37
2018-01-11T16:55:04.385Z,18.07
2018-01-11T16:57:32.746Z,18.43
2018-01-11T17:00:01.669Z,17.73
2018-01-11T17:02:30.169Z,17.83
2018-01-11T17:04:58.926Z,17.73
2018-01-11T17:07:27.377Z,17.13
2018-01-11T17:09:56.103Z,17.10
2018-01-11T17:12:24.626Z,17.63
2018-01-11T17:14:53.154Z,16.50
2018-01-11T17:17:21.590Z,16.00
2018-01-11T17:19:49.933Z,15.50
2018-01-11T17:22:18.357Z,16.27
2018-01-11T17:24:47.157Z,16.07
2018-01-11T17:27:15.535Z,14.93
2018-01-11T17:29:44.015Z,16.20
2018-01-11T17:32:12.376Z,16.63
2018-01-11T17:34:41.196Z,15.40
2018-01-11T17:37:09.727Z,15.87
2018-01-11T17:39:38.225Z,16.33
2018-01-11T17:42:06.865Z,16.17
2018-01-11T17:44:35.659Z,15.90
2018-01-11T17:47:04.123Z,17.00
2018-01-11T17:49:32.429Z,17.30
2018-01-11T17:52:00.736Z,16.90
2018-01-11T17:54:29.401Z,17.00
2018-01-11T17:56:57.702Z,16.50
2018-01-11T17:59:26.440Z,16.87
2018-01-11T18:01:54.727Z,17.73
2018-01-11T18:04:24.146Z,17.53
2018-01-11T18:06:52.542Z,16.63
2018-01-11T18:09:21.267Z,18.13
2018-01-11T18:11:49.636Z,18.17
2018-01-11T18:14:18.170Z,17.97
2018-01-11T18:16:46.477Z,17.60
2018-01-11T18:19:14.809Z,18.53
2018-01-11T18:21:43.203Z,18.83
2018-01-11T18:24:11.564Z,18.50
2018-01-11T18:26:39.856Z,18.77
2018-01-11T18:29:08.149Z,19.30
2018-01-11T18:31:36.863Z,18.37
2018-01-11T18:34:05.548Z,18.60
2018-01-11T18:36:34.298Z,18.83
2018-01-11T18:39:03.081Z,19.30
2018-01-11T18:41:31.362Z,17.63
2018-01-11T18:43:59.678Z,19.83
2018-01-11T18:46:28.370Z,19.47
2018-01-11T18:48:56.672Z,20.17
2018-01-11T18:51:24.970Z,20.20
2018-01-11T18:53:53.272Z,19.30
2018-01-11T18:56:21.980Z,19.83
2018-01-11T18:58:50.716Z,20.50
2018-01-11T19:01:19.180Z,20.83
2018-01-11T19:03:47.545Z,21.03
2018-01-11T19:06:15.866Z,21.17
2018-01-11T19:08:44.191Z,20.57
2018-01-11T19:11:12.522Z,20.70
2018-01-11T19:13:40.839Z,20.70
2018-01-11T19:16:09.175Z,19.83
2018-01-11T19:18:37.535Z,20.50
2018-01-11T19:21:05.846Z,20.07
2018-01-11T19:23:34.146Z,20.53
2018-01-11T19:26:02.883Z,20.50
2018-01-11T19:28:31.166Z,20.70
2018-01-11T19:30:59.486Z,20.03
2018-01-11T19:33:28.404Z,20.67
2018-01-11T19:35:56.745Z,20.13
2018-01-11T19:38:25.077Z,20.83
2018-01-11T19:40:53.444Z,12.10
2018-01-11T19:43:21.730Z,13.77
2018-01-11T19:45:50.043Z,14.27
2018-01-11T19:48:18.427Z,15.37
2018-01-11T19:50:47.122Z,14.40
2018-01-11T19:53:15.452Z,15.83
2018-01-11T19:55:43.776Z,16.50
2018-01-11T19:58:12.084Z,17.07
2018-01-11T20:00:40.442Z,17.80
2018-01-11T20:03:08.872Z,18.83
2018-01-11T20:05:37.164Z,19.00
2018-01-11T20:08:05.910Z,21.77
2018-01-11T20:10:34.263Z,22.20
2018-01-11T20:13:02.599Z,21.20
2018-01-11T20:15:31.345Z,21.63
2018-01-11T20:17:59.646Z,22.53
2018-01-11T20:20:28.095Z,23.67
2018-01-11T20:22:56.404Z,22.90
2018-01-11T20:25:24.773Z,23.10
2018-01-11T20:27:53.076Z,23.00
2018-01-11T20:30:21.371Z,25.40
2018-01-11T20:32:50.124Z,25.20
2018-01-11T20:35:18.481Z,22.93
2018-01-11T20:37:46.802Z,23.30
2018-01-11T20:40:15.111Z,23.63
2018-01-11T20:42:43.471Z,24.50
2018-01-11T20:45:11.771Z,24.93
2018-01-11T20:47:40.122Z,24.60
2018-01-11T20:50:08.879Z,25.20
2018-01-11T20:52:37.187Z,25.53
2018-01-11T20:55:05.901Z,23.80
2018-01-11T20:57:34.262Z,25.17
2018-01-11T21:00:03.011Z,24.53
2018-01-11T21:02:31.346Z,25.53
2018-01-11T21:04:59.661Z,25.30
2018-01-11T21:07:27.978Z,22.70
2018-01-11T21:09:56.861Z,24.27
2018-01-11T21:12:25.154Z,25.20
2018-01-11T21:14:53.469Z,25.73
2018-01-11T21:17:21.849Z,24.23
2018-01-11T21:19:50.160Z,25.13
2018-01-11T21:22:18.482Z,25.50
2018-01-11T21:24:46.806Z,25.60
2018-01-11T21:27:15.095Z,25.63
2018-01-11T21:29:43.398Z,26.43
2018-01-11T21:32:11.712Z,27.00
2018-01-11T21:34:39.991Z,26.90
2018-01-11T21:37:08.295Z,27.80
2018-01-11T21:39:37.075Z,27.77
2018-01-11T21:42:05.408Z,27.70
2018-01-11T21:44:33.746Z,28.97
2018-01-11T21:47:02.469Z,27.83
2018-01-11T21:49:30.783Z,28.50
2018-01-11T21:51:59.072Z,27.20
2018-01-11T21:54:27.350Z,29.00
2018-01-11T21:56:55.662Z,28.47
2018-01-11T21:59:23.965Z,28.37
2018-01-11T22:01:52.288Z,30.37
2018-01-11T22:04:20.610Z,28.27
2018-01-11T22:06:49.002Z,28.03
2018-01-11T22:09:17.402Z,28.10
2018-01-11T22:11:45.687Z,28.53
2018-01-11T22:14:13.967Z,29.43
2018-01-11T22:16:42.547Z,28.70
2018-01-11T22:19:10.826Z,29.50
2018-01-11T22:21:39.099Z,28.80
2018-01-11T22:24:07.449Z,29.57
2018-01-11T22:26:36.788Z,28.47
2018-01-11T22:29:06.674Z,29.53
2018-01-11T22:31:35.279Z,29.17
2018-01-11T22:34:03.582Z,28.50
2018-01-11T22:36:32.769Z,29.70
2018-01-11T22:39:01.390Z,30.13
2018-01-11T22:41:30.027Z,29.10
2018-01-11T22:43:58.385Z,30.23
2018-01-11T22:46:26.862Z,29.43
2018-01-11T22:48:55.398Z,29.03
2018-01-11T22:51:23.750Z,29.93
2018-01-11T22:53:52.527Z,30.17
2018-01-11T22:56:20.919Z,29.57
2018-01-11T22:58:49.283Z,30.17
2018-01-11T23:01:17.593Z,29.30
2018-01-11T23:03:45.922Z,29.00
2018-01-11T23:06:14.203Z,29.23
2018-01-11T23:08:42.507Z,30.20
2018-01-11T23:11:10.825Z,29.57
2018-01-11T23:13:39.359Z,29.23
2018-01-11T23:16:07.680Z,30.90
2018-01-11T23:18:36.066Z,30.50
2018-01-11T23:21:06.213Z,29.50
2018-01-11T23:23:34.815Z,29.20
2018-01-11T23:26:03.099Z,29.57
2018-01-11T23:28:31.442Z,30.20
2018-01-11T23:30:59.897Z,29.50
2018-01-11T23:33:28.343Z,29.10
2018-01-11T23:35:57.090Z,28.13
2018-01-11T23:38:25.401Z,28.90
2018-01-11T23:40:54.102Z,28.70
2018-01-11T23:43:22.421Z,29.30
2018-01-11T23:45:50.770Z,31.13
2018-01-11T23:48:19.054Z,29.10
2018-01-11T23:50:47.326Z,30.13
2018-01-11T23:53:15.716Z,29.73
2018-01-11T23:55:44.004Z,30.70
2018-01-11T23:58:12.280Z,30.53
